Airfield :
LOGIN :

Register | Disclaimer

   EN    FR    IT 

 










Legend :    VFR   Marginal VFR   IFR   Intensive IFR   Very Intensive IFR
Visi :
Ceiling :
>= 8 km
>= 3000ft
5 to 8 km
1000 to 3000 ft
1500m to 5 km
500 to 1000 ft
800 to 1500m
200 to 500 ft
< 800m
< 200 ft
Symbols :   Thunderstorms  Fog  Heavy snow  Heavy precipitations  Wind > 20 kt
SIGMETs :     Misc.  Thunderstorms  Icing  Turbulence  Mountain Waves  Volcanic Ashes







- Airport Elevation : 247 ft
- IATA code : BLL


EKBI - Billund

CURRENT METAR :
  • 230920Z AUTO 27010KT 9999NDV FEW020/// 21/15 Q1016

EXPIRED METARs :
  • 230850Z AUTO 26008KT 230V310 9999NDV SCT018/// 21/15 Q1016
  • 230820Z AUTO 27008KT 240V300 9999NDV SCT015/// SCT017/// 21/15 Q1016
  • 230750Z AUTO 26009KT 9999NDV BKN014/// 20/15 Q1015
  • 230720Z AUTO 29009KT 9999NDV OVC012/// 19/15 Q1015
  • 230650Z AUTO 29010KT 9999NDV OVC011/// 18/15 Q1015

TAF TAF EKBI
Valid from the 23 at 06:00 until the 24 at 06:00 UTC


230452Z 2306/2406 28008KT 9999 BKN015
TEMPO 2306/2308 BKN014
PROB40 2400/2406 0500 FG BKN002
No reported NOTAMs for that airfield.



MET'MAP, your aeronautical weather chart ! - Copyright ORBIFLY December 2007 - Disclaimer

ORBIFLY MET'MAP TEAM :

Programming & Development : Alexandra Zaïnal
Concept & Development : Baudouin d'Aumeries
Co-Development & Prog : Marc-Olivier Méhu
Technical & hardware support : Manuel Goepfert

Contact : metmap@orbifly.com




SOURCES & CREDITS :

   NOAA